Time;durP1;ratioP1;P1;durP2;ratioP2;P2;SDS_P1;SDS_P2;PMS_P1;PMS_P2;Temp;Humidity;BMP_temperature;BMP_pressure;BME280_temperature;BME280_humidity;BME280_pressure;Samples;Min_cycle;Max_cycle;Signal;HPM_P1;HPM_P2
2023/01/17 00:01:41;;;;;;;;;;;20.60;86.90;;;;;;5097626;28;20011;-50
2023/01/17 00:09:52;;;;;;;;;;;20.70;86.80;;;;;;5076807;28;19959;-49
2023/01/17 00:12:18;;;;;;;;;;;20.60;86.80;;;;;;5077346;28;19917;-50
2023/01/17 00:14:43;;;;;;;;;;;20.60;86.70;;;;;;5076530;28;19916;-52
2023/01/17 00:17:09;;;;;;;;;;;20.60;86.60;;;;;;5076673;28;19916;-53
2023/01/17 01:34:07;;;;;;;;;;;20.50;87.30;;;;;;5092983;28;19919;-55
2023/01/17 01:36:32;;;;;;;;;;;20.50;87.00;;;;;;5095502;28;19987;-48
2023/01/17 01:38:58;;;;;;;;;;;20.50;87.10;;;;;;5095472;28;19908;-50
2023/01/17 01:41:23;;;;;;;;;;;20.60;87.10;;;;;;5095323;28;19912;-50
2023/01/17 01:43:50;;;;;;;;;;;20.60;86.90;;;;;;5095078;28;19912;-48
2023/01/17 01:46:20;;;;;;;;;;;20.60;86.90;;;;;;5095215;28;19908;-51
2023/01/17 01:48:48;;;;;;;;;;;20.60;86.80;;;;;;5095058;28;19912;-53
2023/01/17 01:51:16;;;;;;;;;;;20.60;86.60;;;;;;5095130;28;19912;-50
2023/01/17 01:53:43;;;;;;;;;;;20.60;86.70;;;;;;5093385;28;19935;-52
2023/01/17 01:56:10;;;;;;;;;;;20.60;87.10;;;;;;5095252;28;19904;-51
2023/01/17 01:58:36;;;;;;;;;;;20.60;87.00;;;;;;5094630;28;19943;-50
2023/01/17 02:01:03;;;;;;;;;;;20.60;87.00;;;;;;5095620;28;19915;-50
2023/01/17 02:03:31;;;;;;;;;;;20.60;87.00;;;;;;5095002;28;19910;-51
2023/01/17 02:06:00;;;;;;;;;;;20.60;87.10;;;;;;5077066;28;20345;-50
2023/01/17 02:08:25;;;;;;;;;;;20.50;87.00;;;;;;5094693;28;19930;-49
2023/01/17 02:10:51;;;;;;;;;;;20.50;87.00;;;;;;5094192;28;19912;-53
2023/01/17 02:13:18;;;;;;;;;;;20.50;86.90;;;;;;5093709;28;20011;-51
2023/01/17 02:16:16;;;;;;;;;;;20.50;86.90;;;;;;5095023;28;20354;-50
2023/01/17 02:18:42;;;;;;;;;;;20.50;87.20;;;;;;5038916;28;19908;-50
2023/01/17 02:21:10;;;;;;;;;;;20.60;87.30;;;;;;5095012;28;19911;-53
2023/01/17 02:23:54;;;;;;;;;;;20.60;86.90;;;;;;5094009;28;19946;-52
2023/01/17 02:26:19;;;;;;;;;;;20.60;87.00;;;;;;5074312;28;19957;-50
2023/01/17 02:28:45;;;;;;;;;;;20.60;86.90;;;;;;5074491;28;20007;-49
2023/01/17 02:31:15;;;;;;;;;;;20.60;87.10;;;;;;5093999;28;19978;-50
2023/01/17 02:33:47;;;;;;;;;;;20.60;87.00;;;;;;5092043;28;20379;-49
2023/01/17 02:36:15;;;;;;;;;;;20.60;86.90;;;;;;5094414;28;19920;-48
2023/01/17 02:38:45;;;;;;;;;;;20.60;86.80;;;;;;5094319;28;19908;-50
2023/01/17 02:41:16;;;;;;;;;;;20.60;87.10;;;;;;5094183;28;20274;-50
2023/01/17 02:43:42;;;;;;;;;;;20.60;87.30;;;;;;5091096;28;19916;-53
2023/01/17 02:46:07;;;;;;;;;;;20.60;87.00;;;;;;5094005;28;20313;-50
2023/01/17 02:48:35;;;;;;;;;;;20.60;86.90;;;;;;5094350;28;19956;-47
2023/01/17 02:51:20;;;;;;;;;;;20.60;87.30;;;;;;5076216;28;20335;-48
2023/01/17 02:53:52;;;;;;;;;;;20.60;86.70;;;;;;5092159;28;20307;-52
2023/01/17 02:56:20;;;;;;;;;;;20.60;86.70;;;;;;5094410;28;20371;-48
2023/01/17 02:58:51;;;;;;;;;;;20.60;86.70;;;;;;5093575;28;20003;-51
2023/01/17 03:01:30;;;;;;;;;;;20.60;86.80;;;;;;5092082;28;20408;-48
2023/01/17 03:04:05;;;;;;;;;;;20.50;87.00;;;;;;5093022;28;19978;-49
2023/01/17 03:06:35;;;;;;;;;;;20.50;87.10;;;;;;5093943;28;19931;-48
2023/01/17 03:09:01;;;;;;;;;;;20.40;87.30;;;;;;5094254;28;19912;-48
2023/01/17 03:11:26;;;;;;;;;;;20.30;87.40;;;;;;5093909;28;19918;-49
2023/01/17 03:13:56;;;;;;;;;;;20.30;87.30;;;;;;5075955;28;19912;-51
2023/01/17 03:16:22;;;;;;;;;;;20.30;87.60;;;;;;5092071;28;20378;-50
2023/01/17 03:18:48;;;;;;;;;;;20.30;87.90;;;;;;5094104;28;19912;-49
2023/01/17 03:21:13;;;;;;;;;;;20.40;87.70;;;;;;5075745;28;19908;-50
2023/01/17 03:23:39;;;;;;;;;;;20.40;87.60;;;;;;5093784;28;19959;-49
2023/01/17 03:26:04;;;;;;;;;;;20.50;87.50;;;;;;5093420;28;19918;-48
2023/01/17 03:28:30;;;;;;;;;;;20.60;87.10;;;;;;5094287;28;19919;-49
2023/01/17 03:30:55;;;;;;;;;;;20.70;86.50;;;;;;5093753;28;19958;-50
2023/01/17 03:33:21;;;;;;;;;;;20.80;86.70;;;;;;5091437;28;20404;-48
2023/01/17 03:35:47;;;;;;;;;;;20.80;86.50;;;;;;5095766;28;19912;-48
2023/01/17 03:38:13;;;;;;;;;;;20.80;86.10;;;;;;5092814;28;20009;-50
2023/01/17 03:40:38;;;;;;;;;;;20.80;86.20;;;;;;5092881;28;19923;-52
2023/01/17 03:43:04;;;;;;;;;;;20.80;86.20;;;;;;5095093;28;19912;-51
2023/01/17 03:45:29;;;;;;;;;;;20.80;86.50;;;;;;5092674;28;19912;-51
2023/01/17 03:47:56;;;;;;;;;;;20.70;86.40;;;;;;5092315;28;20127;-50
2023/01/17 03:50:22;;;;;;;;;;;20.70;86.70;;;;;;5075116;28;20355;-49
2023/01/17 03:52:48;;;;;;;;;;;20.60;86.70;;;;;;5092265;28;19966;-50
2023/01/17 03:55:13;;;;;;;;;;;20.60;86.80;;;;;;5074885;28;19999;-50
2023/01/17 03:57:39;;;;;;;;;;;20.60;86.80;;;;;;5093047;28;19915;-53
2023/01/17 04:00:05;;;;;;;;;;;20.50;87.00;;;;;;5093417;28;19908;-52
2023/01/17 04:02:30;;;;;;;;;;;20.60;87.00;;;;;;5092633;28;19912;-52
2023/01/17 04:04:56;;;;;;;;;;;20.60;87.00;;;;;;5093378;28;20041;-51
2023/01/17 04:07:21;;;;;;;;;;;20.70;87.00;;;;;;5093655;28;20293;-47
2023/01/17 04:09:47;;;;;;;;;;;20.80;86.50;;;;;;5093616;28;19920;-50
2023/01/17 04:12:13;;;;;;;;;;;20.90;86.30;;;;;;5096187;28;19923;-52
2023/01/17 04:14:39;;;;;;;;;;;20.90;86.30;;;;;;5097001;28;19908;-49
2023/01/17 04:17:06;;;;;;;;;;;20.90;86.30;;;;;;5096959;28;20378;-49
2023/01/17 04:19:32;;;;;;;;;;;20.90;85.90;;;;;;5097195;28;19908;-52
2023/01/17 04:21:58;;;;;;;;;;;20.90;86.30;;;;;;5096101;28;19952;-47
2023/01/17 04:24:23;;;;;;;;;;;20.80;86.40;;;;;;5097381;28;19908;-47
2023/01/17 04:26:49;;;;;;;;;;;20.70;86.70;;;;;;5097067;28;20365;-51
2023/01/17 04:29:14;;;;;;;;;;;20.60;86.80;;;;;;5096899;28;20286;-50
2023/01/17 04:31:40;;;;;;;;;;;20.50;87.00;;;;;;5097247;28;19912;-52
2023/01/17 04:34:05;;;;;;;;;;;20.50;87.40;;;;;;5094589;28;19919;-48
2023/01/17 04:36:31;;;;;;;;;;;20.50;87.20;;;;;;5096723;28;20285;-49
2023/01/17 04:38:56;;;;;;;;;;;20.50;87.30;;;;;;5096455;28;19908;-50
2023/01/17 04:41:22;;;;;;;;;;;20.60;87.50;;;;;;5095831;28;19916;-51
2023/01/17 04:43:47;;;;;;;;;;;20.60;86.80;;;;;;5096682;28;19908;-51
2023/01/17 04:46:12;;;;;;;;;;;20.80;86.60;;;;;;5095824;28;20397;-48
2023/01/17 04:48:38;;;;;;;;;;;20.90;86.30;;;;;;5078323;28;19951;-47
2023/01/17 04:51:04;;;;;;;;;;;21.00;86.30;;;;;;5095767;28;20268;-48
2023/01/17 04:53:29;;;;;;;;;;;21.00;85.90;;;;;;5096458;28;19908;-50
2023/01/17 04:55:55;;;;;;;;;;;21.00;85.90;;;;;;5096401;28;19908;-49
2023/01/17 04:58:20;;;;;;;;;;;20.90;86.20;;;;;;5096506;28;20262;-50
2023/01/17 05:00:49;;;;;;;;;;;20.80;86.40;;;;;;5095817;28;19915;-47
2023/01/17 05:03:19;;;;;;;;;;;20.70;86.60;;;;;;5095544;28;19961;-47
2023/01/17 05:05:44;;;;;;;;;;;20.60;86.40;;;;;;5096298;28;19908;-48
2023/01/17 05:08:10;;;;;;;;;;;20.60;86.80;;;;;;5095779;28;19919;-50
2023/01/17 05:10:35;;;;;;;;;;;20.50;87.00;;;;;;5078000;28;19935;-48
2023/01/17 05:13:01;;;;;;;;;;;20.40;87.30;;;;;;5094505;28;19961;-50
2023/01/17 05:15:27;;;;;;;;;;;20.40;87.30;;;;;;5095583;28;20015;-49
2023/01/17 05:17:53;;;;;;;;;;;20.40;87.60;;;;;;5096008;28;19974;-47
2023/01/17 05:20:19;;;;;;;;;;;20.50;87.30;;;;;;5096010;28;20359;-49
2023/01/17 05:22:54;;;;;;;;;;;20.60;87.10;;;;;;5094239;28;19959;-51
2023/01/17 05:25:20;;;;;;;;;;;20.70;86.60;;;;;;5095384;28;20283;-53
2023/01/17 05:27:46;;;;;;;;;;;20.90;86.20;;;;;;5095703;28;19908;-50
2023/01/17 05:30:11;;;;;;;;;;;21.10;85.90;;;;;;5095727;28;20088;-49
2023/01/17 05:32:37;;;;;;;;;;;21.10;85.40;;;;;;5094452;28;19912;-49
2023/01/17 05:35:02;;;;;;;;;;;21.10;85.00;;;;;;5095223;28;19918;-49
2023/01/17 05:37:28;;;;;;;;;;;21.10;85.70;;;;;;5095689;28;19927;-49
2023/01/17 05:39:53;;;;;;;;;;;21.00;85.90;;;;;;5095029;28;19916;-53
2023/01/17 05:42:18;;;;;;;;;;;20.90;86.40;;;;;;5076522;28;19908;-52
2023/01/17 05:44:44;;;;;;;;;;;20.80;86.70;;;;;;5095753;28;19908;-50
2023/01/17 05:47:09;;;;;;;;;;;20.70;86.80;;;;;;5095187;28;19908;-47
2023/01/17 05:49:35;;;;;;;;;;;20.60;87.10;;;;;;5095067;28;19912;-50
2023/01/17 05:52:01;;;;;;;;;;;20.50;87.10;;;;;;5094888;28;19916;-50
2023/01/17 05:54:26;;;;;;;;;;;20.50;87.50;;;;;;5077099;28;19908;-49
2023/01/17 05:56:51;;;;;;;;;;;20.40;87.20;;;;;;5094922;28;19912;-53
2023/01/17 05:59:17;;;;;;;;;;;20.40;87.60;;;;;;5094846;28;19998;-49
2023/01/17 06:01:42;;;;;;;;;;;20.50;87.70;;;;;;5093193;28;19951;-50
2023/01/17 06:04:08;;;;;;;;;;;20.60;87.50;;;;;;5095023;28;19958;-50
2023/01/17 06:06:33;;;;;;;;;;;20.60;87.10;;;;;;5094968;28;19915;-49
2023/01/17 06:08:59;;;;;;;;;;;20.70;86.90;;;;;;5094776;28;19928;-49
2023/01/17 06:11:25;;;;;;;;;;;20.80;86.90;;;;;;5093471;28;20263;-49
2023/01/17 06:13:50;;;;;;;;;;;20.80;86.90;;;;;;5093874;28;19912;-48
2023/01/17 06:16:16;;;;;;;;;;;20.90;86.70;;;;;;5076495;28;19908;-48
2023/01/17 06:18:41;;;;;;;;;;;20.80;86.60;;;;;;5094410;28;19912;-54
2023/01/17 06:21:07;;;;;;;;;;;20.80;86.70;;;;;;5094616;28;19908;-50
2023/01/17 06:23:32;;;;;;;;;;;20.80;86.70;;;;;;5093971;28;19912;-53
2023/01/17 06:26:00;;;;;;;;;;;20.80;86.50;;;;;;5094662;28;19908;-52
2023/01/17 06:28:26;;;;;;;;;;;20.70;87.10;;;;;;5094071;28;19919;-48
2023/01/17 06:30:51;;;;;;;;;;;20.70;87.20;;;;;;5094338;28;20020;-54
2023/01/17 06:33:17;;;;;;;;;;;20.60;87.40;;;;;;5093172;28;19965;-51
2023/01/17 06:35:46;;;;;;;;;;;20.60;87.50;;;;;;5092982;28;20354;-51
2023/01/17 06:38:12;;;;;;;;;;;20.50;87.50;;;;;;5094149;28;19908;-51
2023/01/17 06:40:37;;;;;;;;;;;20.50;87.30;;;;;;5094027;28;19912;-50
2023/01/17 06:43:03;;;;;;;;;;;20.50;87.60;;;;;;5093198;28;19965;-48
2023/01/17 06:45:29;;;;;;;;;;;20.50;87.60;;;;;;5075974;28;19908;-51
2023/01/17 06:47:54;;;;;;;;;;;20.50;87.00;;;;;;5075808;28;19908;-49
2023/01/17 06:50:20;;;;;;;;;;;20.60;87.10;;;;;;5093234;28;19923;-51
2023/01/17 06:52:53;;;;;;;;;;;20.60;87.20;;;;;;5093729;28;19912;-50
2023/01/17 06:55:18;;;;;;;;;;;20.70;86.80;;;;;;5093803;28;20399;-53
2023/01/17 06:57:44;;;;;;;;;;;20.80;86.60;;;;;;5093644;28;19953;-53
2023/01/17 07:00:09;;;;;;;;;;;20.90;86.30;;;;;;5091548;28;19966;-51
2023/01/17 07:02:35;;;;;;;;;;;20.90;86.10;;;;;;5073284;28;20363;-50
2023/01/17 07:05:00;;;;;;;;;;;20.90;86.00;;;;;;5094109;28;19981;-51
2023/01/17 07:07:26;;;;;;;;;;;20.90;86.30;;;;;;5095399;28;19912;-52
2023/01/17 07:09:51;;;;;;;;;;;20.80;86.20;;;;;;5089158;28;20392;-53
2023/01/17 07:12:17;;;;;;;;;;;20.80;86.50;;;;;;5096084;28;19916;-51
2023/01/17 07:14:42;;;;;;;;;;;20.70;87.00;;;;;;5072734;28;20003;-52
2023/01/17 07:17:08;;;;;;;;;;;20.70;85.20;;;;;;5091564;28;20274;-50
2023/01/17 07:19:33;;;;;;;;;;;20.70;86.80;;;;;;5103294;28;19965;-52
2023/01/17 07:21:58;;;;;;;;;;;20.60;85.00;;;;;;5090338;28;19912;-54
2023/01/17 07:24:24;;;;;;;;;;;20.50;87.10;;;;;;5092818;28;19919;-53
2023/01/17 07:26:50;;;;;;;;;;;20.40;87.20;;;;;;5091459;28;20413;-54
2023/01/17 07:29:16;;;;;;;;;;;20.30;87.40;;;;;;5090641;28;19974;-53
2023/01/17 07:31:41;;;;;;;;;;;20.20;87.70;;;;;;5088438;28;19916;-52
2023/01/17 07:34:07;;;;;;;;;;;19.90;80.90;;;;;;5093186;28;19915;-53
2023/01/17 07:36:32;;;;;;;;;;;19.90;86.50;;;;;;5092409;28;19977;-52
2023/01/17 07:38:58;;;;;;;;;;;19.80;87.60;;;;;;5093540;28;19915;-53
2023/01/17 07:41:23;;;;;;;;;;;19.70;87.80;;;;;;5092526;28;19935;-54
2023/01/17 07:43:49;;;;;;;;;;;19.70;88.10;;;;;;5093249;28;19909;-50
2023/01/17 07:46:15;;;;;;;;;;;19.70;88.30;;;;;;5095322;28;19998;-49
2023/01/17 07:48:40;;;;;;;;;;;19.60;88.40;;;;;;5097260;28;19913;-50
2023/01/17 07:51:07;;;;;;;;;;;19.50;88.50;;;;;;5078501;28;19923;-52
2023/01/17 07:53:32;;;;;;;;;;;19.50;88.60;;;;;;5097700;28;20362;-51
2023/01/17 07:56:05;;;;;;;;;;;19.40;88.70;;;;;;5097694;28;19908;-50
2023/01/17 07:58:31;;;;;;;;;;;19.40;88.80;;;;;;5097121;28;19956;-52
2023/01/17 08:01:00;;;;;;;;;;;19.30;88.80;;;;;;5098129;28;19947;-49
2023/01/17 08:03:30;;;;;;;;;;;19.30;89.10;;;;;;5096268;28;20286;-51
2023/01/17 08:05:57;;;;;;;;;;;19.30;89.10;;;;;;5097159;28;19912;-53
2023/01/17 08:08:22;;;;;;;;;;;19.20;89.20;;;;;;5096851;28;19916;-53
2023/01/17 08:10:48;;;;;;;;;;;19.20;89.20;;;;;;5096893;28;20003;-52
2023/01/17 08:13:14;;;;;;;;;;;19.10;89.30;;;;;;5094918;28;19912;-53
2023/01/17 08:15:39;;;;;;;;;;;19.10;89.30;;;;;;5095057;28;20359;-54
2023/01/17 08:18:05;;;;;;;;;;;19.10;89.50;;;;;;5096763;28;19947;-54
2023/01/17 08:20:30;;;;;;;;;;;19.10;89.50;;;;;;5078554;28;19915;-54
2023/01/17 08:22:56;;;;;;;;;;;19.00;89.60;;;;;;5096922;28;20351;-52
2023/01/17 08:25:22;;;;;;;;;;;19.00;89.70;;;;;;5095973;28;19912;-51
2023/01/17 08:27:47;;;;;;;;;;;18.90;89.70;;;;;;5096053;28;19920;-51
2023/01/17 08:30:13;;;;;;;;;;;18.90;89.70;;;;;;5096464;28;19912;-54
2023/01/17 08:32:39;;;;;;;;;;;18.90;89.80;;;;;;5078624;28;19908;-52
2023/01/17 08:35:05;;;;;;;;;;;18.90;89.80;;;;;;5095307;28;19912;-49
2023/01/17 08:37:31;;;;;;;;;;;18.90;89.80;;;;;;5095354;28;19994;-48
2023/01/17 08:39:57;;;;;;;;;;;18.80;89.90;;;;;;5096454;28;19912;-52
2023/01/17 08:42:22;;;;;;;;;;;18.80;90.00;;;;;;5096342;28;20286;-51
2023/01/17 08:44:48;;;;;;;;;;;18.80;90.00;;;;;;5095374;28;19966;-52
2023/01/17 08:47:13;;;;;;;;;;;18.80;89.90;;;;;;5078393;28;19915;-51
2023/01/17 08:49:39;;;;;;;;;;;18.70;89.90;;;;;;5078149;28;20371;-51
2023/01/17 08:52:05;;;;;;;;;;;18.70;90.00;;;;;;5095998;28;19912;-51
2023/01/17 08:54:30;;;;;;;;;;;18.70;90.00;;;;;;5096222;28;19915;-54
2023/01/17 08:56:56;;;;;;;;;;;18.70;90.00;;;;;;5094550;28;20007;-51
2023/01/17 08:59:21;;;;;;;;;;;18.70;90.00;;;;;;5096148;28;19908;-51
2023/01/17 09:01:47;;;;;;;;;;;18.70;90.00;;;;;;5096036;28;19908;-55
2023/01/17 09:04:13;;;;;;;;;;;18.70;90.10;;;;;;5096572;28;19912;-52
2023/01/17 09:06:40;;;;;;;;;;;18.60;90.00;;;;;;5094719;28;19964;-52
2023/01/17 09:09:06;;;;;;;;;;;18.60;90.00;;;;;;5095715;28;19912;-51
2023/01/17 09:11:32;;;;;;;;;;;18.60;90.00;;;;;;5096283;28;19912;-50
2023/01/17 09:13:57;;;;;;;;;;;18.60;90.00;;;;;;5096353;28;19999;-52
2023/01/17 09:16:23;;;;;;;;;;;18.60;90.00;;;;;;5095543;28;19997;-50
2023/01/17 09:18:52;;;;;;;;;;;18.60;90.00;;;;;;5095919;28;19908;-53
2023/01/17 09:21:18;;;;;;;;;;;18.60;90.00;;;;;;5095852;28;20270;-52
2023/01/17 09:23:44;;;;;;;;;;;18.60;90.00;;;;;;5095837;28;19918;-52
2023/01/17 09:26:23;;;;;;;;;;;18.50;90.20;;;;;;5094642;28;19908;-51
2023/01/17 09:28:49;;;;;;;;;;;18.50;90.10;;;;;;5077451;28;20283;-50
2023/01/17 09:31:14;;;;;;;;;;;18.50;90.10;;;;;;5077569;28;19919;-52
2023/01/17 09:33:41;;;;;;;;;;;18.50;90.10;;;;;;5095689;28;19931;-54
2023/01/17 09:36:08;;;;;;;;;;;18.50;90.10;;;;;;5094419;28;19920;-53
2023/01/17 09:38:33;;;;;;;;;;;18.50;90.10;;;;;;5095241;28;19933;-52
2023/01/17 09:41:00;;;;;;;;;;;18.50;90.10;;;;;;5095524;28;19912;-50
2023/01/17 09:43:33;;;;;;;;;;;18.50;90.10;;;;;;5095157;28;20355;-49
2023/01/17 09:45:58;;;;;;;;;;;18.50;90.00;;;;;;5094588;28;19934;-53
2023/01/17 09:48:30;;;;;;;;;;;18.50;90.10;;;;;;5095181;28;19912;-53
2023/01/17 09:50:58;;;;;;;;;;;18.50;90.00;;;;;;5095412;28;20363;-54
2023/01/17 09:53:33;;;;;;;;;;;18.50;90.10;;;;;;5095127;28;19915;-49
2023/01/17 09:56:01;;;;;;;;;;;18.50;90.10;;;;;;5076351;28;19920;-51
2023/01/17 09:58:37;;;;;;;;;;;18.50;90.10;;;;;;5095239;28;19918;-53
2023/01/17 10:01:21;;;;;;;;;;;18.50;90.10;;;;;;5094904;28;19920;-51
2023/01/17 10:04:05;;;;;;;;;;;18.50;90.10;;;;;;5076618;28;19955;-48
2023/01/17 10:06:37;;;;;;;;;;;18.50;90.00;;;;;;5094224;28;19947;-53
2023/01/17 10:09:20;;;;;;;;;;;18.50;90.00;;;;;;5076397;28;19919;-53
2023/01/17 10:11:55;;;;;;;;;;;18.40;90.00;;;;;;5093324;28;20011;-53
2023/01/17 10:14:39;;;;;;;;;;;18.50;90.00;;;;;;5093865;28;19919;-53
2023/01/17 10:17:07;;;;;;;;;;;18.50;90.00;;;;;;5094322;28;19912;-53
2023/01/17 10:19:33;;;;;;;;;;;18.50;90.00;;;;;;5094578;28;20006;-54
2023/01/17 10:22:00;;;;;;;;;;;18.40;90.00;;;;;;5092319;28;20386;-50
2023/01/17 10:24:44;;;;;;;;;;;18.50;90.00;;;;;;5094497;28;19970;-55
2023/01/17 10:27:27;;;;;;;;;;;18.40;90.00;;;;;;5094396;28;20362;-54
2023/01/17 10:29:53;;;;;;;;;;;18.40;90.00;;;;;;5094160;28;20422;-54
2023/01/17 10:32:23;;;;;;;;;;;18.40;90.00;;;;;;5092837;28;19948;-51
2023/01/17 10:34:49;;;;;;;;;;;18.40;90.10;;;;;;5094431;28;19909;-53
2023/01/17 10:37:33;;;;;;;;;;;18.40;90.10;;;;;;5094356;28;20019;-52
2023/01/17 10:40:02;;;;;;;;;;;18.40;90.10;;;;;;5093918;28;20334;-51
2023/01/17 10:42:32;;;;;;;;;;;18.40;90.10;;;;;;5093276;28;19912;-52
2023/01/17 10:45:02;;;;;;;;;;;18.40;90.10;;;;;;5094582;28;19908;-53
2023/01/17 10:47:29;;;;;;;;;;;18.30;90.10;;;;;;5093937;28;20274;-53
2023/01/17 10:49:57;;;;;;;;;;;18.30;90.10;;;;;;5094387;28;19919;-55
2023/01/17 10:52:37;;;;;;;;;;;18.40;90.10;;;;;;5093660;28;19927;-51
2023/01/17 10:55:20;;;;;;;;;;;18.30;90.10;;;;;;5094197;28;19912;-50
2023/01/17 10:57:49;;;;;;;;;;;18.40;90.10;;;;;;5094018;28;20351;-54
2023/01/17 11:00:21;;;;;;;;;;;18.40;90.10;;;;;;5094088;28;19969;-53
2023/01/17 11:02:48;;;;;;;;;;;18.40;90.10;;;;;;5092727;28;19912;-52
2023/01/17 11:05:34;;;;;;;;;;;18.40;90.10;;;;;;5091475;28;19912;-53
2023/01/17 11:08:02;;;;;;;;;;;18.40;90.10;;;;;;5092963;28;19908;-52
2023/01/17 11:10:38;;;;;;;;;;;18.40;90.10;;;;;;5094406;28;20369;-53
2023/01/17 11:13:22;;;;;;;;;;;18.40;90.10;;;;;;5093709;28;19908;-54
2023/01/17 11:15:49;;;;;;;;;;;18.50;90.00;;;;;;5075860;28;19912;-53
2023/01/17 11:18:16;;;;;;;;;;;18.50;90.00;;;;;;5093700;28;19915;-54
2023/01/17 11:20:42;;;;;;;;;;;18.50;90.00;;;;;;5093661;28;19912;-50
2023/01/17 11:23:22;;;;;;;;;;;18.40;90.00;;;;;;5097972;28;20002;-54
2023/01/17 11:25:49;;;;;;;;;;;18.40;90.00;;;;;;5097926;28;19908;-53
2023/01/17 11:28:17;;;;;;;;;;;18.40;90.00;;;;;;5097793;28;20011;-54
2023/01/17 11:30:50;;;;;;;;;;;18.40;90.00;;;;;;5097167;28;19920;-54
2023/01/17 11:33:28;;;;;;;;;;;18.40;90.00;;;;;;5097749;28;19908;-53
2023/01/17 11:35:54;;;;;;;;;;;18.40;90.00;;;;;;5097807;28;19909;-53
2023/01/17 11:38:20;;;;;;;;;;;18.40;90.00;;;;;;5079694;28;20250;-51
2023/01/17 11:40:52;;;;;;;;;;;18.30;90.00;;;;;;5097010;28;19917;-53
2023/01/17 11:43:26;;;;;;;;;;;18.30;90.10;;;;;;5097774;28;19936;-54
2023/01/17 11:45:59;;;;;;;;;;;18.30;90.10;;;;;;5097515;28;20325;-50
2023/01/17 11:48:25;;;;;;;;;;;18.30;90.10;;;;;;5097180;28;19912;-52
2023/01/17 11:50:57;;;;;;;;;;;18.30;90.10;;;;;;5096803;28;20063;-53
2023/01/17 11:53:29;;;;;;;;;;;18.30;90.10;;;;;;5079461;28;20380;-54
2023/01/17 11:56:06;;;;;;;;;;;18.30;90.10;;;;;;5097339;28;19908;-52
2023/01/17 11:58:33;;;;;;;;;;;18.30;90.10;;;;;;5097332;28;19908;-54
2023/01/17 12:01:17;;;;;;;;;;;18.30;90.10;;;;;;5076540;28;19916;-50
2023/01/17 12:03:46;;;;;;;;;;;18.30;90.10;;;;;;5097134;28;19919;-50
2023/01/17 12:06:16;;;;;;;;;;;18.30;90.10;;;;;;5097257;28;19908;-49
2023/01/17 12:08:57;;;;;;;;;;;18.20;90.20;;;;;;5097137;28;19955;-53
2023/01/17 12:11:34;;;;;;;;;;;18.20;90.20;;;;;;5096743;28;21226;-52
2023/01/17 12:14:08;;;;;;;;;;;18.20;90.20;;;;;;5097179;28;19915;-55
2023/01/17 12:16:37;;;;;;;;;;;18.20;90.20;;;;;;5095675;28;19939;-50
2023/01/17 12:19:02;;;;;;;;;;;18.20;90.20;;;;;;5096376;28;19961;-53
2023/01/17 12:21:45;;;;;;;;;;;18.20;90.20;;;;;;5096714;28;19912;-52
2023/01/17 12:24:11;;;;;;;;;;;18.20;90.10;;;;;;5097095;28;19931;-51
2023/01/17 12:26:39;;;;;;;;;;;18.20;90.10;;;;;;5078200;28;19927;-53
2023/01/17 12:29:24;;;;;;;;;;;18.30;90.10;;;;;;5096644;28;19919;-54
2023/01/17 12:32:05;;;;;;;;;;;18.30;90.10;;;;;;5095057;28;19969;-53
2023/01/17 12:34:49;;;;;;;;;;;18.30;90.00;;;;;;5096527;28;19912;-53
2023/01/17 12:37:21;;;;;;;;;;;18.30;90.00;;;;;;5074915;28;19927;-53
2023/01/17 12:39:53;;;;;;;;;;;18.30;90.00;;;;;;5076767;28;20256;-54
2023/01/17 12:42:21;;;;;;;;;;;18.40;90.00;;;;;;5075031;28;20007;-51
2023/01/17 12:44:53;;;;;;;;;;;18.30;89.90;;;;;;5074401;28;22708;-51
2023/01/17 12:47:19;;;;;;;;;;;18.30;89.90;;;;;;5076036;28;19955;-49
2023/01/17 12:49:51;;;;;;;;;;;18.30;89.90;;;;;;5076356;28;19954;-51
2023/01/17 12:52:23;;;;;;;;;;;18.30;90.00;;;;;;5075754;28;19923;-50
2023/01/17 12:54:52;;;;;;;;;;;18.30;90.00;;;;;;5074624;28;20003;-51
2023/01/17 12:57:37;;;;;;;;;;;18.30;90.00;;;;;;5074062;28;20352;-54
2023/01/17 13:00:12;;;;;;;;;;;18.30;90.00;;;;;;5075230;28;20232;-51
2023/01/17 13:02:46;;;;;;;;;;;18.30;90.00;;;;;;5074512;28;19948;-53
2023/01/17 13:05:28;;;;;;;;;;;18.20;90.00;;;;;;5074909;28;19912;-52
2023/01/17 13:08:12;;;;;;;;;;;18.20;90.00;;;;;;5075808;28;19958;-50
2023/01/17 13:10:43;;;;;;;;;;;18.20;90.00;;;;;;5075649;28;19913;-50
2023/01/17 13:13:25;;;;;;;;;;;18.20;90.00;;;;;;5075953;28;19934;-51
2023/01/17 13:15:53;;;;;;;;;;;18.20;90.00;;;;;;5074713;28;19912;-51
2023/01/17 13:18:24;;;;;;;;;;;18.20;90.00;;;;;;5076017;28;19912;-53
2023/01/17 13:21:10;;;;;;;;;;;18.20;90.00;;;;;;5075884;28;19908;-53
2023/01/17 13:24:02;;;;;;;;;;;18.20;90.00;;;;;;5071080;28;19909;-50
2023/01/17 13:26:35;;;;;;;;;;;18.20;90.00;;;;;;5072767;28;19912;-51
2023/01/17 13:29:23;;;;;;;;;;;18.20;90.00;;;;;;5073826;28;19912;-51
2023/01/17 13:31:58;;;;;;;;;;;18.20;90.00;;;;;;5075786;28;20368;-53
2023/01/17 13:34:31;;;;;;;;;;;18.20;90.00;;;;;;5075067;28;19912;-51
2023/01/17 13:37:03;;;;;;;;;;;18.20;90.00;;;;;;5084453;28;19920;-53
2023/01/17 13:39:32;;;;;;;;;;;18.20;90.00;;;;;;5095156;28;19913;-50
2023/01/17 13:42:09;;;;;;;;;;;18.20;90.00;;;;;;5094968;28;19961;-49
2023/01/17 13:44:35;;;;;;;;;;;18.20;90.00;;;;;;5094432;28;19915;-51
2023/01/17 13:47:03;;;;;;;;;;;18.20;90.00;;;;;;5093679;28;20275;-50
2023/01/17 13:49:28;;;;;;;;;;;18.20;90.20;;;;;;5095131;28;19916;-50
2023/01/17 13:52:12;;;;;;;;;;;18.20;89.90;;;;;;5077070;28;19919;-53
2023/01/17 13:54:44;;;;;;;;;;;18.20;89.90;;;;;;5094832;28;19995;-54
2023/01/17 13:57:24;;;;;;;;;;;18.20;89.80;;;;;;5093938;28;20323;-48
2023/01/17 13:59:53;;;;;;;;;;;18.20;89.90;;;;;;5095001;28;19912;-51
2023/01/17 14:02:31;;;;;;;;;;;18.20;89.90;;;;;;5076473;28;19908;-53
2023/01/17 14:05:08;;;;;;;;;;;18.20;89.90;;;;;;5093407;28;20346;-50
2023/01/17 14:07:42;;;;;;;;;;;18.10;89.90;;;;;;5094065;28;19955;-52
2023/01/17 14:10:26;;;;;;;;;;;18.20;89.90;;;;;;5076456;28;19916;-52
2023/01/17 14:12:52;;;;;;;;;;;18.20;90.00;;;;;;5093666;28;19934;-48
2023/01/17 14:15:28;;;;;;;;;;;18.20;89.90;;;;;;5076703;28;20351;-49
2023/01/17 14:17:58;;;;;;;;;;;18.10;89.90;;;;;;5094063;28;20424;-52
2023/01/17 14:20:28;;;;;;;;;;;18.20;90.00;;;;;;5094605;28;19919;-49
2023/01/17 14:22:55;;;;;;;;;;;18.10;90.00;;;;;;5076379;28;20385;-50
2023/01/17 14:25:26;;;;;;;;;;;18.10;90.00;;;;;;5093094;28;19916;-50
2023/01/17 14:27:57;;;;;;;;;;;18.10;90.00;;;;;;5094493;28;19912;-55
2023/01/17 14:30:33;;;;;;;;;;;18.10;90.00;;;;;;5094369;28;19920;-50
2023/01/17 14:33:04;;;;;;;;;;;18.00;90.00;;;;;;5094788;28;19962;-53
2023/01/17 14:35:34;;;;;;;;;;;18.10;90.00;;;;;;5093011;28;19908;-50
2023/01/17 14:38:04;;;;;;;;;;;18.10;90.00;;;;;;5094644;28;19931;-53
2023/01/17 14:40:31;;;;;;;;;;;18.10;90.00;;;;;;5093938;28;20305;-51
2023/01/17 14:43:03;;;;;;;;;;;18.10;90.00;;;;;;5093968;28;19936;-50
2023/01/17 14:45:30;;;;;;;;;;;18.00;90.00;;;;;;5074147;28;19915;-51
2023/01/17 14:48:00;;;;;;;;;;;18.10;90.00;;;;;;5073942;28;20244;-51
2023/01/17 14:50:28;;;;;;;;;;;18.10;90.00;;;;;;5082365;28;20006;-50
2023/01/17 14:53:16;;;;;;;;;;;18.10;90.00;;;;;;5093728;28;19916;-51
2023/01/17 14:55:49;;;;;;;;;;;18.10;89.90;;;;;;5084648;28;19908;-50
2023/01/17 14:58:31;;;;;;;;;;;18.20;89.80;;;;;;5093551;28;19931;-54
2023/01/17 15:01:01;;;;;;;;;;;18.20;89.70;;;;;;5092138;28;20019;-50
2023/01/17 15:03:27;;;;;;;;;;;18.20;89.60;;;;;;5093670;28;20006;-52
2023/01/17 15:05:54;;;;;;;;;;;18.20;89.50;;;;;;5093774;28;19955;-52
2023/01/17 15:08:21;;;;;;;;;;;18.20;89.40;;;;;;5075879;28;20285;-53
2023/01/17 15:10:54;;;;;;;;;;;18.20;89.40;;;;;;5094017;28;19912;-51
2023/01/17 15:13:22;;;;;;;;;;;18.20;89.40;;;;;;5093644;28;20343;-50
2023/01/17 15:15:48;;;;;;;;;;;18.10;89.50;;;;;;5092759;28;20006;-52
2023/01/17 15:18:13;;;;;;;;;;;18.10;89.50;;;;;;5093973;28;20032;-51
2023/01/17 15:20:44;;;;;;;;;;;18.10;89.60;;;;;;5093268;28;20420;-49
2023/01/17 15:23:14;;;;;;;;;;;18.10;89.60;;;;;;5093278;28;19954;-52
2023/01/17 15:25:39;;;;;;;;;;;18.10;89.60;;;;;;5092250;28;20385;-50
2023/01/17 15:28:08;;;;;;;;;;;18.10;89.60;;;;;;5093713;28;19908;-49
2023/01/17 15:30:34;;;;;;;;;;;18.00;89.60;;;;;;5093645;28;19938;-53
2023/01/17 15:32:59;;;;;;;;;;;18.10;89.60;;;;;;5093489;28;19908;-53
2023/01/17 15:35:27;;;;;;;;;;;18.00;89.60;;;;;;5092567;28;19912;-51
2023/01/17 15:37:53;;;;;;;;;;;18.00;89.70;;;;;;5093663;28;19921;-51
2023/01/17 15:40:23;;;;;;;;;;;18.00;89.80;;;;;;5092071;28;19913;-49
2023/01/17 15:42:50;;;;;;;;;;;18.00;89.80;;;;;;5095036;28;20347;-53
2023/01/17 15:45:18;;;;;;;;;;;18.10;89.80;;;;;;5074835;28;19915;-54
2023/01/17 15:47:44;;;;;;;;;;;18.00;89.80;;;;;;5092625;28;20347;-48